createdAt,value
2022-12-02T00:00:37.953Z,9.358581
2022-12-02T00:01:37.952Z,9.358560
2022-12-02T00:02:38.079Z,9.358548
2022-12-02T00:03:38.020Z,9.358588
2022-12-02T00:04:37.962Z,9.358674
2022-12-02T00:05:37.870Z,9.358574
2022-12-02T00:06:37.888Z,9.358511
2022-12-02T00:07:38.037Z,9.358547
2022-12-02T00:08:37.847Z,9.358571
2022-12-02T00:09:37.864Z,9.358521
2022-12-02T00:10:37.845Z,9.358536
2022-12-02T00:11:37.821Z,9.358517
2022-12-02T00:12:37.812Z,9.358532
2022-12-02T00:13:37.815Z,9.358543
2022-12-02T00:14:38.785Z,9.358509
2022-12-02T00:15:37.785Z,9.358575
2022-12-02T00:16:37.921Z,9.358692
2022-12-02T00:17:37.756Z,9.358592
2022-12-02T00:18:37.753Z,9.358546
2022-12-02T00:19:37.776Z,9.358541
2022-12-02T00:20:37.746Z,9.358496
2022-12-02T00:21:37.727Z,9.358524
2022-12-02T00:22:37.757Z,9.358552
2022-12-02T00:23:37.679Z,9.358514
2022-12-02T00:24:37.748Z,9.358445
2022-12-02T00:25:37.716Z,9.358499
2022-12-02T00:26:37.693Z,9.358525
2022-12-02T00:27:37.672Z,9.358534
2022-12-02T00:28:37.706Z,9.358467
2022-12-02T00:29:37.644Z,9.358497
2022-12-02T00:30:37.643Z,9.358454
2022-12-02T00:31:37.711Z,9.358425
2022-12-02T00:32:37.606Z,9.358600
2022-12-02T00:33:37.636Z,9.358572
2022-12-02T00:34:37.592Z,9.358548
2022-12-02T00:35:37.585Z,9.358510
2022-12-02T00:36:37.559Z,9.358552
2022-12-02T00:37:37.593Z,9.358501
2022-12-02T00:38:37.573Z,9.358487
2022-12-02T00:39:37.563Z,9.358494
2022-12-02T00:40:37.521Z,9.358586
2022-12-02T00:41:37.530Z,9.358665
2022-12-02T00:42:37.532Z,9.358679
2022-12-02T00:43:37.554Z,9.358640
2022-12-02T00:44:37.506Z,9.358609
2022-12-02T00:45:37.493Z,9.358581
2022-12-02T00:46:37.469Z,9.358575
2022-12-02T00:47:37.463Z,9.358551
2022-12-02T00:48:37.442Z,9.358528
2022-12-02T00:49:37.437Z,9.358547
2022-12-02T00:50:37.471Z,9.358576
2022-12-02T00:51:37.400Z,9.358628
2022-12-02T00:52:37.391Z,9.358595
2022-12-02T00:53:37.391Z,9.358574
2022-12-02T00:54:37.408Z,9.358521
2022-12-02T00:55:37.392Z,9.358522
2022-12-02T00:56:37.355Z,9.358537
2022-12-02T00:57:38.333Z,9.358553
2022-12-02T00:58:37.344Z,9.358564
2022-12-02T00:59:37.338Z,9.358522
2022-12-02T01:00:38.353Z,9.358525
2022-12-02T01:01:37.370Z,9.358500
2022-12-02T01:02:37.333Z,9.358531
2022-12-02T01:03:41.149Z,9.358519
2022-12-02T01:04:39.270Z,9.358591
2022-12-02T01:05:37.258Z,9.358585
2022-12-02T01:06:37.277Z,9.358562
2022-12-02T01:07:37.270Z,9.358603
2022-12-02T01:08:37.231Z,9.358579
2022-12-02T01:09:37.222Z,9.358577
2022-12-02T01:10:37.222Z,9.358639
2022-12-02T01:11:37.200Z,9.358622
2022-12-02T01:12:37.210Z,9.358544
2022-12-02T01:13:37.203Z,9.358528
2022-12-02T01:14:37.188Z,9.358576
2022-12-02T01:15:37.187Z,9.358580
2022-12-02T01:16:37.216Z,9.358582
2022-12-02T01:17:37.153Z,9.358568
2022-12-02T01:18:37.171Z,9.358528
2022-12-02T01:19:37.148Z,9.358547
2022-12-02T01:20:37.129Z,9.358559
2022-12-02T01:21:37.109Z,9.358552
2022-12-02T01:22:37.095Z,9.358556
2022-12-02T01:23:37.115Z,9.358623
2022-12-02T01:24:37.082Z,9.358592
2022-12-02T01:25:37.049Z,9.358591
2022-12-02T01:26:37.056Z,9.358597
2022-12-02T01:27:37.016Z,9.358569
2022-12-02T01:28:37.046Z,9.358620
2022-12-02T01:29:37.017Z,9.358651
2022-12-02T01:30:37.016Z,9.358614
2022-12-02T01:31:37.022Z,9.358597
2022-12-02T01:32:36.976Z,9.358602
2022-12-02T01:33:37.074Z,9.358583
2022-12-02T01:34:36.963Z,9.358614
2022-12-02T01:35:36.970Z,9.358580
2022-12-02T01:36:36.980Z,9.358550
2022-12-02T01:37:36.927Z,9.358546
2022-12-02T01:38:36.910Z,9.358529
2022-12-02T01:39:36.925Z,9.358685
2022-12-02T01:40:36.871Z,9.358557
2022-12-02T01:41:36.904Z,9.358494
2022-12-02T01:42:36.906Z,9.358548
2022-12-02T01:43:36.912Z,9.358616
2022-12-02T01:44:36.874Z,9.358612
2022-12-02T01:45:37.011Z,9.358597
2022-12-02T01:46:36.831Z,9.358623
2022-12-02T01:47:36.819Z,9.358560
2022-12-02T01:48:36.828Z,9.358563
2022-12-02T01:49:36.769Z,9.358526
2022-12-02T01:50:36.793Z,9.358496
2022-12-02T01:51:36.785Z,9.358645
2022-12-02T01:52:36.754Z,9.358622
2022-12-02T01:53:36.780Z,9.358578
2022-12-02T01:54:36.759Z,9.358562
2022-12-02T01:55:36.727Z,9.358567
2022-12-02T01:56:36.713Z,9.358529
2022-12-02T01:57:36.717Z,9.358504
2022-12-02T01:58:36.742Z,9.358573
2022-12-02T01:59:36.703Z,9.358632
2022-12-02T02:00:36.685Z,9.358600
2022-12-02T02:01:36.758Z,9.358585
2022-12-02T02:02:36.689Z,9.358564
2022-12-02T02:03:36.668Z,9.358421
2022-12-02T02:04:36.686Z,9.358391
2022-12-02T02:05:36.609Z,9.358444
2022-12-02T02:06:36.608Z,9.358433
2022-12-02T02:07:36.692Z,9.358541
2022-12-02T02:08:36.605Z,9.358606
2022-12-02T02:09:36.538Z,9.358541
2022-12-02T02:10:36.568Z,9.358520
2022-12-02T02:11:36.564Z,9.358626
2022-12-02T02:12:36.537Z,9.358701
2022-12-02T02:13:36.585Z,9.358540
2022-12-02T02:14:36.571Z,9.358493
2022-12-02T02:15:36.525Z,9.358528
2022-12-02T02:16:36.594Z,9.358532
2022-12-02T02:17:36.502Z,9.358542
2022-12-02T02:18:36.492Z,9.358467
2022-12-02T02:19:36.490Z,9.358517
2022-12-02T02:20:36.475Z,9.358510
2022-12-02T02:21:36.481Z,9.358508
2022-12-02T02:22:36.410Z,9.358597
2022-12-02T02:23:36.477Z,9.358679
2022-12-02T02:24:36.405Z,9.358608
2022-12-02T02:25:36.405Z,9.358527
2022-12-02T02:26:36.395Z,9.358526
2022-12-02T02:27:36.418Z,9.358597
2022-12-02T02:28:36.401Z,9.358593
2022-12-02T02:29:36.374Z,9.358562
2022-12-02T02:30:36.444Z,9.358519
2022-12-02T02:31:36.340Z,9.358547
2022-12-02T02:32:36.369Z,9.358603
2022-12-02T02:33:36.343Z,9.358557
2022-12-02T02:34:36.340Z,9.358562
2022-12-02T02:35:36.268Z,9.358598
2022-12-02T02:36:36.277Z,9.358585
2022-12-02T02:37:36.347Z,9.358526
2022-12-02T02:38:36.319Z,9.358582
2022-12-02T02:39:36.284Z,9.358595
2022-12-02T02:40:36.308Z,9.358590
2022-12-02T02:41:36.234Z,9.358493
2022-12-02T02:42:36.216Z,9.358475
2022-12-02T02:43:36.284Z,9.358443
2022-12-02T02:44:36.211Z,9.358460
2022-12-02T02:45:36.300Z,9.358461
2022-12-02T02:46:36.350Z,9.358437
2022-12-02T02:47:36.188Z,9.358508
2022-12-02T02:48:36.181Z,9.358522
2022-12-02T02:49:36.176Z,9.358484
2022-12-02T02:50:36.190Z,9.358490
2022-12-02T02:51:36.146Z,9.358480
2022-12-02T02:52:36.111Z,9.358479
2022-12-02T02:53:36.165Z,9.358500
2022-12-02T02:54:36.099Z,9.358479
2022-12-02T02:55:36.114Z,9.358513
2022-12-02T02:56:36.143Z,9.358528
2022-12-02T02:57:36.042Z,9.358541
2022-12-02T02:58:36.058Z,9.358515
2022-12-02T02:59:36.105Z,9.358498
2022-12-02T03:00:36.036Z,9.358475
2022-12-02T03:01:36.057Z,9.358486
2022-12-02T03:02:36.123Z,9.358470
2022-12-02T03:03:36.003Z,9.358564
2022-12-02T03:04:35.993Z,9.358541
2022-12-02T03:05:36.021Z,9.358521
2022-12-02T03:06:35.957Z,9.358482
2022-12-02T03:07:35.996Z,9.358445
2022-12-02T03:08:35.964Z,9.358459
2022-12-02T03:09:35.954Z,9.358449
2022-12-02T03:10:35.951Z,9.358451
2022-12-02T03:11:35.908Z,9.358452
2022-12-02T03:12:35.891Z,9.358445
2022-12-02T03:13:35.896Z,9.358466
2022-12-02T03:14:35.902Z,9.358658
2022-12-02T03:15:35.866Z,9.358517
2022-12-02T03:16:35.910Z,9.358518
2022-12-02T03:17:35.875Z,9.358558
2022-12-02T03:18:35.843Z,9.358459
2022-12-02T03:19:35.854Z,9.358486
2022-12-02T03:20:35.836Z,9.358487
2022-12-02T03:21:35.797Z,9.358463
2022-12-02T03:22:35.821Z,9.358489
2022-12-02T03:23:35.816Z,9.358466
2022-12-02T03:24:35.814Z,9.358465
2022-12-02T03:25:35.764Z,9.358567
2022-12-02T03:26:35.868Z,9.358564
2022-12-02T03:27:35.734Z,9.358514
2022-12-02T03:28:35.836Z,9.358414
2022-12-02T03:29:35.783Z,9.358474
2022-12-02T03:30:35.824Z,9.358434
2022-12-02T03:31:35.689Z,9.358467
2022-12-02T03:32:35.763Z,9.358430
2022-12-02T03:33:35.749Z,9.358476
2022-12-02T03:34:35.664Z,9.358424
2022-12-02T03:35:35.694Z,9.358382
2022-12-02T03:36:35.709Z,9.358404
2022-12-02T03:37:35.683Z,9.358406
2022-12-02T03:38:35.737Z,9.358428
2022-12-02T03:39:35.705Z,9.358424
2022-12-02T03:40:35.896Z,9.358396
2022-12-02T03:41:35.609Z,9.358447
2022-12-02T03:42:35.666Z,9.358495
2022-12-02T03:44:13.902Z,9.358599
2022-12-02T03:44:35.861Z,9.358446
2022-12-02T03:45:36.675Z,9.358408
2022-12-02T03:47:26.015Z,9.358495
2022-12-02T03:47:36.023Z,9.358520
2022-12-02T03:48:36.015Z,9.358544
2022-12-02T03:50:10.628Z,9.358531
2022-12-02T03:50:35.785Z,9.358509
2022-12-02T03:52:13.465Z,9.358525
2022-12-02T03:52:36.099Z,9.358532
2022-12-02T03:53:36.271Z,9.358529
2022-12-02T03:54:35.991Z,9.358549
2022-12-02T03:58:35.483Z,9.358526
2022-12-02T03:59:35.399Z,9.358478
2022-12-02T04:00:35.281Z,9.358521
2022-12-02T04:01:35.274Z,9.358510
2022-12-02T04:02:35.312Z,9.358564
2022-12-02T04:04:12.027Z,9.358644
2022-12-02T04:04:35.793Z,9.358615
2022-12-02T04:05:35.466Z,9.358632
2022-12-02T04:06:35.274Z,9.358566
2022-12-02T04:07:35.304Z,9.358543
2022-12-02T04:08:35.197Z,9.358589
2022-12-02T04:09:35.237Z,9.358551
2022-12-02T04:10:35.198Z,9.358505
2022-12-02T04:11:35.124Z,9.358524
2022-12-02T04:12:35.157Z,9.358521
2022-12-02T04:13:35.198Z,9.358583
2022-12-02T04:14:35.148Z,9.358585
2022-12-02T04:15:35.153Z,9.358575
2022-12-02T04:16:35.078Z,9.358491
2022-12-02T04:17:35.098Z,9.358564
2022-12-02T04:18:35.148Z,9.358572
2022-12-02T04:20:06.957Z,9.358568
2022-12-02T04:20:35.013Z,9.358644
2022-12-02T04:21:35.017Z,9.358567
2022-12-02T04:22:34.990Z,9.358540
2022-12-02T04:23:35.987Z,9.358516
2022-12-02T04:24:34.974Z,9.358515
2022-12-02T04:25:35.026Z,9.358487
2022-12-02T04:26:37.832Z,9.358534
2022-12-02T04:27:35.959Z,9.358541
2022-12-02T04:28:34.954Z,9.358599
2022-12-02T04:29:34.960Z,9.358648
2022-12-02T04:30:34.924Z,9.358665
2022-12-02T04:31:34.944Z,9.358662
2022-12-02T04:32:34.900Z,9.358664
2022-12-02T04:33:34.918Z,9.358575
2022-12-02T04:34:34.913Z,9.358602
2022-12-02T04:35:34.860Z,9.358625
2022-12-02T04:36:34.845Z,9.358585
2022-12-02T04:37:34.851Z,9.358570
2022-12-02T04:38:34.852Z,9.358514
2022-12-02T04:39:34.830Z,9.358598
2022-12-02T04:40:35.832Z,9.358606
2022-12-02T04:41:34.803Z,9.358564
2022-12-02T04:42:34.787Z,9.358504
2022-12-02T04:43:34.775Z,9.358506
2022-12-02T04:44:34.803Z,9.358580
2022-12-02T04:45:34.754Z,9.358572
2022-12-02T04:46:34.858Z,9.358564
2022-12-02T04:47:34.769Z,9.358560
2022-12-02T04:48:34.726Z,9.358589
2022-12-02T04:49:34.717Z,9.358658
2022-12-02T04:50:34.707Z,9.358601
2022-12-02T04:51:34.706Z,9.358568
2022-12-02T04:52:34.682Z,9.358555
2022-12-02T04:53:34.664Z,9.358570
2022-12-02T04:54:34.669Z,9.358504
2022-12-02T04:55:34.657Z,9.358462
2022-12-02T04:56:34.644Z,9.358547
2022-12-02T04:57:34.637Z,9.358590
2022-12-02T04:58:34.664Z,9.358494
2022-12-02T04:59:34.606Z,9.358515
2022-12-02T05:00:34.622Z,9.358608
2022-12-02T05:01:34.603Z,9.358668
2022-12-02T05:02:34.678Z,9.358545
2022-12-02T05:03:34.695Z,9.358488
2022-12-02T05:04:39.805Z,9.358509
2022-12-02T05:05:36.549Z,9.358570
2022-12-02T05:06:34.539Z,9.358522
2022-12-02T05:07:34.593Z,9.358561
2022-12-02T05:08:34.536Z,9.358472
2022-12-02T05:09:34.515Z,9.358471
2022-12-02T05:10:34.489Z,9.358492
2022-12-02T05:11:36.488Z,9.358512
2022-12-02T05:12:35.481Z,9.358535
2022-12-02T05:13:34.472Z,9.358518
2022-12-02T05:14:34.471Z,9.358516
2022-12-02T05:15:34.467Z,9.358495
2022-12-02T05:16:34.563Z,9.358525
2022-12-02T05:17:39.151Z,9.358516
2022-12-02T05:18:36.418Z,9.358457
2022-12-02T05:19:34.418Z,9.358562
2022-12-02T05:20:34.420Z,9.358520
2022-12-02T05:21:34.407Z,9.358519
2022-12-02T05:22:34.391Z,9.358528
2022-12-02T05:23:34.360Z,9.358461
2022-12-02T05:24:34.360Z,9.358448
2022-12-02T05:25:34.348Z,9.358474
2022-12-02T05:26:34.335Z,9.358510
2022-12-02T05:27:35.721Z,9.358510
2022-12-02T05:28:35.316Z,9.358611
2022-12-02T05:29:34.306Z,9.358544
2022-12-02T05:30:34.294Z,9.358480
2022-12-02T05:31:34.301Z,9.358480
2022-12-02T05:32:34.260Z,9.358472
2022-12-02T05:33:34.265Z,9.358491
2022-12-02T05:34:34.258Z,9.358561
2022-12-02T05:35:34.242Z,9.358553
2022-12-02T05:36:34.240Z,9.358561
2022-12-02T05:37:34.242Z,9.358608
2022-12-02T05:38:34.202Z,9.358566
2022-12-02T05:39:34.197Z,9.358582
2022-12-02T05:40:34.189Z,9.358590
2022-12-02T05:41:34.190Z,9.358558
2022-12-02T05:42:34.145Z,9.358651
2022-12-02T05:43:34.141Z,9.358670
2022-12-02T05:44:39.401Z,9.358581
2022-12-02T05:45:36.132Z,9.358571
2022-12-02T05:46:34.169Z,9.358563
2022-12-02T05:47:34.113Z,9.358612
2022-12-02T05:48:34.108Z,9.358606
2022-12-02T05:49:34.093Z,9.358544
2022-12-02T05:50:34.057Z,9.358485
2022-12-02T05:51:34.081Z,9.358459
2022-12-02T05:52:34.078Z,9.358470
2022-12-02T05:53:34.053Z,9.358510
2022-12-02T05:54:34.020Z,9.358569
2022-12-02T05:55:34.025Z,9.358560
2022-12-02T05:56:34.022Z,9.358522
2022-12-02T05:57:33.991Z,9.358557
2022-12-02T05:58:33.979Z,9.358617
2022-12-02T05:59:33.999Z,9.358574
2022-12-02T06:00:33.952Z,9.358554
2022-12-02T06:01:34.032Z,9.358573
2022-12-02T06:02:40.117Z,9.358480
2022-12-02T06:03:35.972Z,9.358464
2022-12-02T06:04:33.926Z,9.358475
2022-12-02T06:05:33.910Z,9.358481
2022-12-02T06:06:33.936Z,9.358521
2022-12-02T06:07:33.973Z,9.358550
2022-12-02T06:08:37.951Z,9.358518
2022-12-02T06:09:35.871Z,9.358545
2022-12-02T06:10:33.883Z,9.358623
2022-12-02T06:11:33.834Z,9.358611
2022-12-02T06:12:34.858Z,9.358601
2022-12-02T06:13:33.830Z,9.358481
2022-12-02T06:14:33.825Z,9.358498
2022-12-02T06:15:33.849Z,9.358495
2022-12-02T06:16:33.840Z,9.358566
2022-12-02T06:17:33.810Z,9.358587
2022-12-02T06:18:33.785Z,9.358607
2022-12-02T06:19:37.313Z,9.358670
2022-12-02T06:20:34.759Z,9.358683
2022-12-02T06:21:33.767Z,9.358612
2022-12-02T06:22:33.725Z,9.358566
2022-12-02T06:23:33.712Z,9.358621
2022-12-02T06:24:33.707Z,9.358594
2022-12-02T06:25:33.702Z,9.358653
2022-12-02T06:26:33.718Z,9.358651
2022-12-02T06:27:33.675Z,9.358553
2022-12-02T06:28:33.664Z,9.358529
2022-12-02T06:29:33.666Z,9.358529
2022-12-02T06:30:33.667Z,9.358581
2022-12-02T06:31:33.720Z,9.358627
2022-12-02T06:32:33.632Z,9.358645
2022-12-02T06:33:33.635Z,9.358594
2022-12-02T06:34:33.608Z,9.358665
2022-12-02T06:35:33.609Z,9.358739
2022-12-02T06:36:33.605Z,9.358680
2022-12-02T06:37:33.576Z,9.358615
2022-12-02T06:38:33.552Z,9.358576
2022-12-02T06:39:33.559Z,9.358592
2022-12-02T06:40:33.535Z,9.358634
2022-12-02T06:41:33.532Z,9.358663
2022-12-02T06:42:33.543Z,9.358625
2022-12-02T06:43:33.524Z,9.358595
2022-12-02T06:44:33.490Z,9.358540
2022-12-02T06:45:33.598Z,9.358624
2022-12-02T06:46:33.471Z,9.358644
2022-12-02T06:47:33.472Z,9.358643
2022-12-02T06:48:33.479Z,9.358581
2022-12-02T06:49:33.437Z,9.358537
2022-12-02T06:50:36.331Z,9.358512
2022-12-02T06:51:35.433Z,9.358558
2022-12-02T06:52:33.421Z,9.358526
2022-12-02T06:53:33.411Z,9.358504
2022-12-02T06:54:33.399Z,9.358516
2022-12-02T06:55:33.393Z,9.358569
2022-12-02T06:56:33.360Z,9.358610
2022-12-02T06:57:33.349Z,9.358491
2022-12-02T06:58:33.349Z,9.358506
2022-12-02T06:59:33.332Z,9.358451
2022-12-02T07:00:33.332Z,9.358557
2022-12-02T07:01:33.390Z,9.358560
2022-12-02T07:02:33.348Z,9.358564
2022-12-02T07:03:33.324Z,9.358582
2022-12-02T07:04:33.289Z,9.358560
2022-12-02T07:05:33.286Z,9.358603
2022-12-02T07:06:33.274Z,9.358566
2022-12-02T07:07:33.332Z,9.358563
2022-12-02T07:08:33.244Z,9.358611
2022-12-02T07:09:33.237Z,9.358652
2022-12-02T07:10:33.212Z,9.358624
2022-12-02T07:11:33.193Z,9.358570
2022-12-02T07:12:33.208Z,9.358545
2022-12-02T07:13:33.166Z,9.358624
2022-12-02T07:14:33.163Z,9.358611
2022-12-02T07:15:33.193Z,9.358620
2022-12-02T07:16:33.225Z,9.358624
2022-12-02T07:17:33.148Z,9.358577
2022-12-02T07:18:33.137Z,9.358539
2022-12-02T07:19:33.102Z,9.358512
2022-12-02T07:20:34.104Z,9.358553
2022-12-02T07:21:33.110Z,9.358525
2022-12-02T07:22:33.113Z,9.358615
2022-12-02T07:23:33.084Z,9.358591
2022-12-02T07:24:34.052Z,9.358601
2022-12-02T07:25:33.068Z,9.358595
2022-12-02T07:26:33.049Z,9.358566
2022-12-02T07:27:33.047Z,9.358547
2022-12-02T07:28:33.026Z,9.358528
2022-12-02T07:29:33.007Z,9.358566
2022-12-02T07:30:33.075Z,9.358548
2022-12-02T07:31:32.991Z,9.358591
2022-12-02T07:32:32.973Z,9.358562
2022-12-02T07:33:32.967Z,9.358602
2022-12-02T07:34:34.479Z,9.358586
2022-12-02T07:35:33.935Z,9.358583
2022-12-02T07:36:32.944Z,9.358609
2022-12-02T07:37:32.960Z,9.358629
2022-12-02T07:39:04.258Z,9.358583
2022-12-02T07:39:34.925Z,9.358602
2022-12-02T07:40:32.891Z,9.358560
2022-12-02T07:41:36.923Z,9.358541
2022-12-02T07:42:33.867Z,9.358590
2022-12-02T07:43:32.863Z,9.358582
2022-12-02T07:44:32.855Z,9.358628
2022-12-02T07:45:32.837Z,9.358628
2022-12-02T07:46:32.956Z,9.358577
2022-12-02T07:47:32.815Z,9.358661
2022-12-02T07:48:32.815Z,9.358631
2022-12-02T07:49:32.819Z,9.358652
2022-12-02T07:50:32.796Z,9.358730
2022-12-02T07:51:32.820Z,9.358747
2022-12-02T07:52:32.793Z,9.358649
2022-12-02T07:53:32.750Z,9.358609
2022-12-02T07:54:32.740Z,9.358596
2022-12-02T07:55:32.749Z,9.358582
2022-12-02T07:56:32.701Z,9.358643
2022-12-02T07:57:34.633Z,9.358734
2022-12-02T07:58:55.303Z,9.358733
2022-12-02T07:59:34.704Z,9.358692
2022-12-02T08:00:32.708Z,9.358658
2022-12-02T08:01:32.759Z,9.358545
2022-12-02T08:02:32.701Z,9.358542
2022-12-02T08:03:32.660Z,9.358596
2022-12-02T08:04:32.668Z,9.358674
2022-12-02T08:05:32.638Z,9.358636
2022-12-02T08:06:38.701Z,9.358597
2022-12-02T08:07:34.637Z,9.358608
2022-12-02T08:08:32.790Z,9.358587
2022-12-02T08:09:32.593Z,9.358642
2022-12-02T08:10:32.598Z,9.358685
2022-12-02T08:11:32.562Z,9.358624
2022-12-02T08:12:32.584Z,9.358536
2022-12-02T08:13:32.551Z,9.358582
2022-12-02T08:14:32.551Z,9.358675
2022-12-02T08:15:32.517Z,9.358724
2022-12-02T08:16:32.591Z,9.358636
2022-12-02T08:17:32.500Z,9.358565
2022-12-02T08:18:32.487Z,9.358440
2022-12-02T08:19:32.503Z,9.358527
2022-12-02T08:20:32.473Z,9.358526
2022-12-02T08:21:32.470Z,9.358589
2022-12-02T08:22:32.444Z,9.358522
2022-12-02T08:23:32.449Z,9.358475
2022-12-02T08:24:32.448Z,9.358507
2022-12-02T08:25:32.418Z,9.358462
2022-12-02T08:26:32.426Z,9.358495
2022-12-02T08:27:32.390Z,9.358571
2022-12-02T08:28:32.404Z,9.358657
2022-12-02T08:29:32.410Z,9.358618
2022-12-02T08:30:32.417Z,9.358505
2022-12-02T08:31:32.375Z,9.358536
2022-12-02T08:32:32.387Z,9.358634
2022-12-02T08:33:32.337Z,9.358574
2022-12-02T08:34:32.348Z,9.358550
2022-12-02T08:35:32.346Z,9.358645
2022-12-02T08:36:32.317Z,9.358664
2022-12-02T08:37:32.287Z,9.358622
2022-12-02T08:38:32.290Z,9.358562
2022-12-02T08:39:32.273Z,9.358629
2022-12-02T08:40:32.283Z,9.358599
2022-12-02T08:41:32.272Z,9.358656
2022-12-02T08:42:32.242Z,9.358574
2022-12-02T08:43:32.238Z,9.358651
2022-12-02T08:44:32.216Z,9.358642
2022-12-02T08:45:32.210Z,9.358616
2022-12-02T08:46:32.260Z,9.358619
2022-12-02T08:47:32.182Z,9.358556
2022-12-02T08:48:32.206Z,9.358562
2022-12-02T08:49:32.169Z,9.358525
2022-12-02T08:50:32.156Z,9.358519
2022-12-02T08:51:32.150Z,9.358442
2022-12-02T08:52:32.167Z,9.358566
2022-12-02T08:53:32.129Z,9.358587
2022-12-02T08:54:32.101Z,9.358693
2022-12-02T08:55:32.124Z,9.358622
2022-12-02T08:56:32.100Z,9.358561
2022-12-02T08:57:32.107Z,9.358605
2022-12-02T08:58:32.081Z,9.358655
2022-12-02T08:59:32.067Z,9.358634
2022-12-02T09:00:38.534Z,9.358562
2022-12-02T09:01:34.109Z,9.358534
2022-12-02T09:02:32.088Z,9.358506
2022-12-02T09:03:32.029Z,9.358526
2022-12-02T09:04:32.012Z,9.358574
2022-12-02T09:05:32.032Z,9.358600
2022-12-02T09:06:36.084Z,9.358560
2022-12-02T09:07:33.003Z,9.358555
2022-12-02T09:08:32.031Z,9.358598
2022-12-02T09:09:31.967Z,9.358563
2022-12-02T09:10:32.003Z,9.358452
2022-12-02T09:11:31.923Z,9.358528
2022-12-02T09:12:31.945Z,9.358554
2022-12-02T09:13:31.907Z,9.358537
2022-12-02T09:14:31.900Z,9.358594
2022-12-02T09:15:31.959Z,9.358642
2022-12-02T09:16:31.894Z,9.358619
2022-12-02T09:17:31.923Z,9.358527
2022-12-02T09:18:31.862Z,9.358500
2022-12-02T09:19:31.900Z,9.358518
2022-12-02T09:20:31.843Z,9.358550
2022-12-02T09:21:31.843Z,9.358645
2022-12-02T09:22:31.832Z,9.358582
2022-12-02T09:23:31.809Z,9.358586
2022-12-02T09:24:31.803Z,9.358534
2022-12-02T09:25:31.792Z,9.358557
2022-12-02T09:26:31.798Z,9.358685
2022-12-02T09:27:31.775Z,9.358615
2022-12-02T09:28:31.790Z,9.358567
2022-12-02T09:29:31.755Z,9.358553
2022-12-02T09:30:31.726Z,9.358546
2022-12-02T09:31:32.797Z,9.358567
2022-12-02T09:32:31.726Z,9.358614
2022-12-02T09:33:33.996Z,9.358519
2022-12-02T09:34:32.706Z,9.358559
2022-12-02T09:35:31.708Z,9.358645
2022-12-02T09:36:31.696Z,9.358600
2022-12-02T09:37:31.658Z,9.358584
2022-12-02T09:38:31.652Z,9.358624
2022-12-02T09:39:37.083Z,9.358571
2022-12-02T09:40:33.666Z,9.358659
2022-12-02T09:41:31.637Z,9.358676
2022-12-02T09:42:31.625Z,9.358573
2022-12-02T09:43:31.609Z,9.358647
2022-12-02T09:44:32.584Z,9.358540
2022-12-02T09:45:31.608Z,9.358472
2022-12-02T09:46:31.631Z,9.358480
2022-12-02T09:47:31.554Z,9.358570
2022-12-02T09:48:31.548Z,9.358567
2022-12-02T09:49:31.553Z,9.358598
2022-12-02T09:50:31.541Z,9.358578
2022-12-02T09:51:31.549Z,9.358505
2022-12-02T09:52:31.538Z,9.358497
2022-12-02T09:53:31.488Z,9.358567
2022-12-02T09:54:31.486Z,9.358639
2022-12-02T09:55:31.504Z,9.358618
2022-12-02T09:56:31.496Z,9.358633
2022-12-02T09:57:37.072Z,9.358583
2022-12-02T09:58:32.472Z,9.358564
2022-12-02T09:59:31.449Z,9.358643
2022-12-02T10:00:31.430Z,9.358630
2022-12-02T10:01:31.455Z,9.358597
2022-12-02T10:02:31.456Z,9.358619
2022-12-02T10:03:31.479Z,9.358662
2022-12-02T10:04:31.422Z,9.358583
2022-12-02T10:05:31.393Z,9.358679
2022-12-02T10:06:31.383Z,9.358650
2022-12-02T10:07:31.380Z,9.358644
2022-12-02T10:08:32.476Z,9.358603
2022-12-02T10:09:32.334Z,9.358684
2022-12-02T10:10:31.336Z,9.358624
2022-12-02T10:11:31.308Z,9.358541
2022-12-02T10:12:31.298Z,9.358515
2022-12-02T10:13:31.307Z,9.358525
2022-12-02T10:14:31.289Z,9.358554
2022-12-02T10:15:31.296Z,9.358542
2022-12-02T10:16:31.351Z,9.358575
2022-12-02T10:17:31.248Z,9.358560
2022-12-02T10:18:31.266Z,9.358565
2022-12-02T10:19:31.255Z,9.358634
2022-12-02T10:21:03.818Z,9.358651
2022-12-02T10:21:31.235Z,9.358700
2022-12-02T10:22:31.273Z,9.358711
2022-12-02T10:23:36.286Z,9.358685
2022-12-02T10:24:33.199Z,9.358654
2022-12-02T10:25:31.171Z,9.358624
2022-12-02T10:26:31.217Z,9.358610
2022-12-02T10:27:31.219Z,9.358660
2022-12-02T10:28:31.152Z,9.358618
2022-12-02T10:29:31.170Z,9.358653
2022-12-02T10:30:32.155Z,9.358758
2022-12-02T10:31:31.179Z,9.358660
2022-12-02T10:32:31.173Z,9.358615
2022-12-02T10:33:31.119Z,9.358484
2022-12-02T10:34:31.097Z,9.358522
2022-12-02T10:35:31.118Z,9.358656
2022-12-02T10:36:31.165Z,9.358708
2022-12-02T10:37:31.073Z,9.358657
2022-12-02T10:38:31.095Z,9.358634
2022-12-02T10:39:36.163Z,9.358547
2022-12-02T10:40:33.023Z,9.358515
2022-12-02T10:41:31.044Z,9.358483
2022-12-02T10:42:31.063Z,9.358568
2022-12-02T10:43:31.030Z,9.358603
2022-12-02T10:44:31.003Z,9.358604
2022-12-02T10:45:30.985Z,9.358643
2022-12-02T10:46:31.041Z,9.358652
2022-12-02T10:47:30.967Z,9.358589
2022-12-02T10:48:30.963Z,9.358601
2022-12-02T10:49:30.971Z,9.358578
2022-12-02T10:50:30.913Z,9.358565
2022-12-02T10:51:30.893Z,9.358583
2022-12-02T10:52:30.975Z,9.358640
2022-12-02T10:53:30.895Z,9.358624
2022-12-02T10:54:30.861Z,9.358656
2022-12-02T10:55:30.885Z,9.358671
2022-12-02T10:56:30.849Z,9.358653
2022-12-02T10:57:30.846Z,9.358603
2022-12-02T10:58:30.850Z,9.358618
2022-12-02T10:59:30.845Z,9.358630
2022-12-02T11:00:30.865Z,9.358613
2022-12-02T11:01:31.944Z,9.358585
2022-12-02T11:02:30.874Z,9.358589
2022-12-02T11:03:30.781Z,9.358638
2022-12-02T11:04:30.836Z,9.358582
2022-12-02T11:05:30.787Z,9.358453
2022-12-02T11:06:30.722Z,9.358459
2022-12-02T11:07:31.832Z,9.358510
2022-12-02T11:08:30.778Z,9.358533
2022-12-02T11:09:45.597Z,9.358621
2022-12-02T11:10:32.803Z,9.358645
2022-12-02T11:11:30.721Z,9.358589
2022-12-02T11:12:30.708Z,9.358648
2022-12-02T11:13:30.765Z,9.358601
2022-12-02T11:14:30.674Z,9.358515
2022-12-02T11:15:30.681Z,9.358485
2022-12-02T11:16:30.733Z,9.358514
2022-12-02T11:17:30.805Z,9.358438
2022-12-02T11:18:30.685Z,9.358488
2022-12-02T11:19:30.670Z,9.358605
2022-12-02T11:20:30.673Z,9.358549
2022-12-02T11:21:30.640Z,9.358541
2022-12-02T11:22:30.643Z,9.358518
2022-12-02T11:23:30.660Z,9.358601
2022-12-02T11:24:30.601Z,9.358535
2022-12-02T11:25:30.703Z,9.358495
2022-12-02T11:26:30.641Z,9.358458
2022-12-02T11:27:30.687Z,9.358489
2022-12-02T11:28:30.842Z,9.358516
2022-12-02T11:29:30.989Z,9.358512
2022-12-02T11:30:30.762Z,9.358514
2022-12-02T11:31:30.605Z,9.358541
2022-12-02T11:32:30.546Z,9.358513
2022-12-02T11:33:30.537Z,9.358501
2022-12-02T11:34:38.642Z,9.358575
2022-12-02T11:35:32.508Z,9.358681
2022-12-02T11:36:30.487Z,9.358639
2022-12-02T11:37:30.501Z,9.358559
2022-12-02T11:38:30.467Z,9.358534
2022-12-02T11:39:30.468Z,9.358504
2022-12-02T11:40:30.429Z,9.358484
2022-12-02T11:41:30.453Z,9.358506
2022-12-02T11:42:30.424Z,9.358519
2022-12-02T11:43:30.504Z,9.358536
2022-12-02T11:44:30.417Z,9.358568
2022-12-02T11:45:30.417Z,9.358624
2022-12-02T11:46:30.466Z,9.358603
2022-12-02T11:47:30.374Z,9.358619